createdAt,value
2022-08-25T00:00:51.796Z,69.70
2022-08-25T00:01:51.779Z,69.99
2022-08-25T00:02:56.071Z,69.50
2022-08-25T00:03:51.774Z,69.50
2022-08-25T00:04:53.830Z,69.70
2022-08-25T00:05:51.779Z,69.70
2022-08-25T00:06:51.701Z,69.89
2022-08-25T00:07:51.697Z,69.60
2022-08-25T00:08:51.684Z,69.70
2022-08-25T00:09:51.694Z,69.50
2022-08-25T00:10:59.840Z,69.41
2022-08-25T00:11:51.625Z,69.41
2022-08-25T00:12:51.633Z,69.50
2022-08-25T00:13:51.635Z,69.79
2022-08-25T00:14:51.612Z,69.70
2022-08-25T00:15:51.596Z,69.60
2022-08-25T00:16:51.551Z,69.79
2022-08-25T00:17:51.569Z,69.70
2022-08-25T00:18:51.547Z,69.60
2022-08-25T00:19:51.509Z,69.79
2022-08-25T00:20:51.494Z,69.70
2022-08-25T00:21:51.485Z,69.70
2022-08-25T00:22:51.496Z,69.79
2022-08-25T00:23:51.493Z,69.60
2022-08-25T00:24:51.433Z,69.79
2022-08-25T00:25:51.417Z,69.70
2022-08-25T00:26:51.414Z,69.70
2022-08-25T00:27:51.421Z,69.41
2022-08-25T00:28:51.414Z,69.12
2022-08-25T00:29:51.362Z,69.12
2022-08-25T00:30:51.376Z,69.21
2022-08-25T00:31:51.348Z,69.41
2022-08-25T00:32:55.263Z,69.21
2022-08-25T00:33:51.352Z,69.02
2022-08-25T00:34:51.280Z,69.31
2022-08-25T00:35:51.277Z,69.41
2022-08-25T00:36:51.293Z,69.50
2022-08-25T00:37:51.238Z,69.60
2022-08-25T00:38:51.219Z,69.70
2022-08-25T00:39:51.277Z,69.50
2022-08-25T00:40:51.210Z,69.60
2022-08-25T00:41:51.210Z,69.99
2022-08-25T00:42:51.164Z,69.60
2022-08-25T00:43:51.150Z,69.99
2022-08-25T00:44:51.130Z,69.60
2022-08-25T00:45:51.159Z,69.50
2022-08-25T00:46:51.121Z,69.99
2022-08-25T00:47:51.090Z,69.70
2022-08-25T00:48:51.068Z,69.60
2022-08-25T00:49:51.065Z,69.70
2022-08-25T00:50:51.081Z,69.70
2022-08-25T00:51:51.024Z,69.79
2022-08-25T00:52:51.008Z,69.99
2022-08-25T00:53:50.994Z,69.89
2022-08-25T00:54:51.001Z,69.79
2022-08-25T00:55:50.988Z,69.99
2022-08-25T00:56:50.949Z,69.70
2022-08-25T00:57:50.952Z,69.60
2022-08-25T00:58:50.923Z,69.31
2022-08-25T00:59:50.921Z,69.21
2022-08-25T01:00:50.928Z,68.92
2022-08-25T01:01:50.956Z,68.73
2022-08-25T01:02:50.905Z,68.54
2022-08-25T01:03:50.861Z,68.73
2022-08-25T01:04:50.849Z,68.82
2022-08-25T01:05:50.850Z,68.82
2022-08-25T01:06:50.800Z,68.44
2022-08-25T01:07:50.788Z,69.41
2022-08-25T01:08:50.783Z,69.41
2022-08-25T01:09:50.772Z,69.41
2022-08-25T01:10:50.747Z,69.31
2022-08-25T01:11:50.728Z,69.50
2022-08-25T01:12:50.709Z,69.41
2022-08-25T01:13:50.714Z,69.41
2022-08-25T01:14:50.693Z,69.31
2022-08-25T01:15:50.730Z,69.41
2022-08-25T01:16:53.563Z,69.50
2022-08-25T01:17:50.643Z,69.41
2022-08-25T01:18:50.652Z,69.50
2022-08-25T01:19:50.649Z,69.41
2022-08-25T01:20:50.594Z,69.12
2022-08-25T01:21:50.577Z,69.21
2022-08-25T01:22:55.203Z,69.50
2022-08-25T01:23:50.579Z,69.21
2022-08-25T01:24:50.567Z,69.50
2022-08-25T01:25:50.561Z,69.21
2022-08-25T01:26:50.501Z,69.21
2022-08-25T01:27:50.506Z,69.31
2022-08-25T01:28:50.482Z,69.12
2022-08-25T01:29:50.499Z,69.21
2022-08-25T01:30:50.494Z,69.41
2022-08-25T01:31:50.431Z,69.31
2022-08-25T01:32:50.440Z,69.31
2022-08-25T01:33:50.428Z,69.31
2022-08-25T01:34:51.881Z,69.41
2022-08-25T01:35:50.362Z,69.50
2022-08-25T01:36:50.374Z,69.89
2022-08-25T01:37:50.357Z,69.60
2022-08-25T01:38:50.337Z,69.60
2022-08-25T01:39:50.377Z,69.60
2022-08-25T01:40:50.289Z,69.79
2022-08-25T01:41:51.415Z,69.60
2022-08-25T01:42:50.291Z,69.31
2022-08-25T01:43:50.287Z,69.60
2022-08-25T01:44:50.227Z,69.70
2022-08-25T01:45:50.317Z,69.70
2022-08-25T01:46:50.223Z,69.89
2022-08-25T01:47:50.225Z,69.99
2022-08-25T01:48:50.175Z,69.79
2022-08-25T01:49:50.156Z,69.70
2022-08-25T01:50:50.148Z,69.79
2022-08-25T01:51:50.145Z,69.79
2022-08-25T01:52:50.108Z,69.70
2022-08-25T01:53:50.093Z,69.79
2022-08-25T01:54:50.082Z,69.89
2022-08-25T01:55:50.073Z,69.79
2022-08-25T01:56:50.066Z,69.99
2022-08-25T01:57:50.069Z,69.89
2022-08-25T01:58:50.096Z,69.70
2022-08-25T01:59:50.008Z,69.70
2022-08-25T02:00:50.014Z,69.60
2022-08-25T02:01:50.026Z,69.83
2022-08-25T02:02:54.239Z,69.70
2022-08-25T02:03:49.944Z,69.70
2022-08-25T02:04:50.628Z,69.64
2022-08-25T02:05:49.921Z,69.50
2022-08-25T02:06:49.900Z,69.50
2022-08-25T02:07:49.942Z,69.31
2022-08-25T02:08:49.869Z,69.24
2022-08-25T02:09:49.876Z,69.41
2022-08-25T02:10:49.860Z,69.24
2022-08-25T02:11:49.937Z,69.41
2022-08-25T02:12:49.815Z,69.41
2022-08-25T02:13:49.798Z,69.41
2022-08-25T02:14:49.798Z,69.41
2022-08-25T02:15:49.789Z,69.99
2022-08-25T02:16:49.875Z,69.50
2022-08-25T02:17:49.733Z,69.50
2022-08-25T02:18:49.725Z,69.50
2022-08-25T02:19:49.733Z,69.89
2022-08-25T02:20:49.721Z,69.12
2022-08-25T02:21:49.678Z,69.50
2022-08-25T02:22:56.757Z,69.41
2022-08-25T02:23:49.655Z,69.41
2022-08-25T02:24:49.654Z,69.50
2022-08-25T02:25:49.613Z,69.41
2022-08-25T02:26:49.602Z,69.50
2022-08-25T02:27:49.586Z,69.60
2022-08-25T02:28:49.589Z,69.60
2022-08-25T02:29:49.590Z,69.70
2022-08-25T02:30:49.595Z,69.50
2022-08-25T02:31:49.525Z,69.60
2022-08-25T02:32:49.513Z,69.70
2022-08-25T02:33:49.519Z,69.79
2022-08-25T02:34:49.516Z,69.41
2022-08-25T02:35:49.488Z,69.50
2022-08-25T02:36:49.454Z,69.44
2022-08-25T02:37:49.443Z,69.50
2022-08-25T02:38:49.452Z,69.41
2022-08-25T02:39:49.493Z,69.60
2022-08-25T02:40:49.398Z,69.89
2022-08-25T02:41:49.378Z,69.41
2022-08-25T02:42:49.376Z,69.60
2022-08-25T02:43:49.360Z,69.50
2022-08-25T02:44:49.334Z,69.41
2022-08-25T02:45:49.412Z,69.50
2022-08-25T02:46:49.302Z,69.70
2022-08-25T02:47:49.310Z,69.21
2022-08-25T02:48:49.302Z,69.89
2022-08-25T02:49:49.255Z,69.50
2022-08-25T02:50:49.247Z,69.89
2022-08-25T02:51:49.233Z,69.12
2022-08-25T02:52:49.231Z,69.44
2022-08-25T02:53:49.203Z,69.60
2022-08-25T02:54:49.183Z,69.41
2022-08-25T02:55:49.166Z,69.41
2022-08-25T02:56:49.160Z,69.41
2022-08-25T02:57:49.144Z,69.41
2022-08-25T02:58:49.124Z,69.50
2022-08-25T02:59:49.156Z,69.41
2022-08-25T03:00:49.140Z,69.21
2022-08-25T03:01:49.092Z,69.50
2022-08-25T03:02:49.076Z,69.41
2022-08-25T03:03:49.063Z,69.41
2022-08-25T03:04:49.066Z,69.02
2022-08-25T03:05:49.016Z,69.12
2022-08-25T03:06:49.023Z,69.12
2022-08-25T03:07:49.019Z,69.50
2022-08-25T03:08:48.972Z,69.89
2022-08-25T03:09:48.955Z,69.60
2022-08-25T03:10:48.952Z,69.50
2022-08-25T03:11:48.935Z,69.50
2022-08-25T03:12:48.913Z,69.60
2022-08-25T03:13:48.897Z,69.31
2022-08-25T03:14:48.877Z,69.41
2022-08-25T03:15:49.306Z,69.89
2022-08-25T03:16:48.944Z,69.70
2022-08-25T03:17:48.844Z,69.41
2022-08-25T03:18:48.835Z,69.60
2022-08-25T03:19:48.808Z,69.50
2022-08-25T03:20:48.792Z,69.02
2022-08-25T03:21:48.810Z,69.41
2022-08-25T03:22:48.764Z,69.31
2022-08-25T03:23:48.749Z,69.50
2022-08-25T03:24:48.736Z,68.63
2022-08-25T03:25:48.732Z,69.02
2022-08-25T03:26:48.724Z,68.92
2022-08-25T03:27:48.708Z,68.82
2022-08-25T03:28:48.667Z,68.82
2022-08-25T03:29:48.670Z,69.12
2022-08-25T03:30:48.664Z,69.02
2022-08-25T03:31:48.681Z,68.63
2022-08-25T03:32:48.607Z,68.44
2022-08-25T03:33:48.593Z,68.82
2022-08-25T03:34:48.582Z,68.82
2022-08-25T03:35:48.577Z,68.82
2022-08-25T03:36:48.553Z,68.63
2022-08-25T03:37:48.530Z,68.34
2022-08-25T03:38:48.527Z,68.54
2022-08-25T03:39:48.571Z,68.63
2022-08-25T03:40:48.485Z,68.44
2022-08-25T03:41:48.471Z,68.34
2022-08-25T03:42:48.459Z,68.44
2022-08-25T03:43:48.763Z,68.70
2022-08-25T03:44:48.442Z,68.24
2022-08-25T03:45:48.522Z,68.63
2022-08-25T03:46:48.394Z,68.63
2022-08-25T03:47:48.387Z,68.60
2022-08-25T03:48:48.392Z,68.60
2022-08-25T03:49:48.361Z,68.50
2022-08-25T03:50:51.675Z,68.40
2022-08-25T03:51:48.327Z,68.30
2022-08-25T03:52:48.311Z,68.50
2022-08-25T03:53:48.299Z,68.70
2022-08-25T03:54:48.280Z,68.70
2022-08-25T03:55:48.256Z,68.70
2022-08-25T03:56:48.241Z,68.70
2022-08-25T03:57:48.249Z,68.44
2022-08-25T03:58:48.247Z,68.54
2022-08-25T03:59:48.195Z,68.50
2022-08-25T04:00:48.231Z,68.70
2022-08-25T04:01:52.653Z,68.70
2022-08-25T04:02:48.217Z,68.70
2022-08-25T04:03:48.166Z,68.70
2022-08-25T04:04:48.125Z,68.40
2022-08-25T04:05:48.106Z,68.40
2022-08-25T04:06:48.108Z,68.12
2022-08-25T04:07:48.079Z,68.89
2022-08-25T04:08:48.062Z,68.92
2022-08-25T04:09:48.042Z,68.82
2022-08-25T04:10:48.028Z,68.15
2022-08-25T04:11:49.225Z,68.34
2022-08-25T04:12:48.011Z,68.63
2022-08-25T04:13:47.989Z,68.54
2022-08-25T04:14:47.970Z,68.44
2022-08-25T04:15:47.965Z,68.63
2022-08-25T04:16:48.496Z,68.34
2022-08-25T04:17:47.924Z,68.63
2022-08-25T04:18:47.908Z,68.34
2022-08-25T04:19:47.894Z,68.63
2022-08-25T04:20:47.888Z,68.44
2022-08-25T04:21:47.887Z,68.54
2022-08-25T04:22:47.860Z,68.54
2022-08-25T04:23:47.834Z,68.54
2022-08-25T04:24:47.819Z,68.34
2022-08-25T04:25:47.809Z,68.44
2022-08-25T04:26:47.822Z,68.34
2022-08-25T04:27:47.781Z,68.44
2022-08-25T04:28:47.760Z,68.44
2022-08-25T04:29:47.753Z,68.44
2022-08-25T04:30:51.856Z,68.44
2022-08-25T04:31:47.814Z,67.85
2022-08-25T04:32:47.699Z,67.85
2022-08-25T04:33:47.677Z,67.76
2022-08-25T04:34:47.677Z,67.95
2022-08-25T04:35:47.663Z,67.85
2022-08-25T04:36:47.640Z,67.85
2022-08-25T04:37:47.664Z,67.85
2022-08-25T04:38:47.609Z,67.76
2022-08-25T04:39:47.681Z,67.85
2022-08-25T04:40:47.590Z,67.85
2022-08-25T04:41:47.563Z,67.85
2022-08-25T04:42:47.542Z,67.95
2022-08-25T04:43:47.540Z,68.05
2022-08-25T04:44:47.541Z,68.54
2022-08-25T04:45:47.587Z,68.24
2022-08-25T04:46:47.542Z,68.44
2022-08-25T04:47:50.617Z,68.63
2022-08-25T04:48:47.476Z,68.24
2022-08-25T04:49:47.460Z,67.76
2022-08-25T04:50:47.426Z,67.85
2022-08-25T04:51:47.417Z,68.24
2022-08-25T04:52:47.393Z,68.05
2022-08-25T04:53:47.421Z,67.85
2022-08-25T04:54:47.366Z,67.76
2022-08-25T04:55:47.349Z,67.85
2022-08-25T04:56:47.340Z,67.95
2022-08-25T04:57:47.339Z,67.85
2022-08-25T04:58:47.322Z,67.76
2022-08-25T04:59:47.311Z,68.15
2022-08-25T05:00:47.296Z,68.15
2022-08-25T05:01:47.259Z,68.05
2022-08-25T05:02:47.263Z,67.85
2022-08-25T05:03:47.292Z,67.66
2022-08-25T05:04:47.228Z,67.76
2022-08-25T05:05:47.199Z,67.57
2022-08-25T05:06:47.187Z,67.66
2022-08-25T05:07:47.171Z,67.57
2022-08-25T05:08:47.168Z,67.57
2022-08-25T05:09:47.143Z,67.57
2022-08-25T05:10:47.121Z,67.66
2022-08-25T05:11:47.118Z,67.66
2022-08-25T05:12:47.103Z,67.08
2022-08-25T05:13:51.609Z,67.18
2022-08-25T05:14:47.069Z,67.08
2022-08-25T05:15:47.044Z,66.89
2022-08-25T05:16:47.057Z,66.99
2022-08-25T05:17:47.040Z,67.08
2022-08-25T05:18:47.004Z,67.57
2022-08-25T05:19:46.983Z,67.37
2022-08-25T05:20:46.983Z,67.57
2022-08-25T05:21:46.967Z,67.57
2022-08-25T05:22:46.963Z,67.47
2022-08-25T05:23:46.929Z,66.89
2022-08-25T05:24:46.911Z,67.08
2022-08-25T05:25:46.912Z,67.60
2022-08-25T05:26:46.887Z,66.82
2022-08-25T05:27:46.879Z,66.69
2022-08-25T05:28:46.952Z,66.89
2022-08-25T05:29:46.834Z,66.69
2022-08-25T05:30:46.840Z,66.79
2022-08-25T05:31:50.341Z,66.79
2022-08-25T05:32:46.823Z,66.60
2022-08-25T05:33:46.772Z,66.60
2022-08-25T05:34:46.758Z,66.72
2022-08-25T05:35:46.760Z,66.63
2022-08-25T05:36:46.757Z,66.72
2022-08-25T05:37:46.719Z,66.53
2022-08-25T05:38:46.699Z,66.63
2022-08-25T05:39:46.744Z,66.72
2022-08-25T05:40:46.698Z,66.92
2022-08-25T05:41:46.683Z,66.92
2022-08-25T05:42:46.686Z,67.02
2022-08-25T05:43:46.624Z,66.72
2022-08-25T05:44:46.623Z,66.63
2022-08-25T05:45:46.653Z,67.11
2022-08-25T05:46:46.579Z,66.34
2022-08-25T05:47:46.575Z,66.34
2022-08-25T05:48:46.549Z,66.24
2022-08-25T05:49:46.552Z,66.34
2022-08-25T05:50:46.656Z,66.34
2022-08-25T05:53:39.449Z,66.53
2022-08-25T05:54:39.360Z,66.11
2022-08-25T05:56:32.376Z,66.11
2022-08-25T05:57:32.779Z,66.14
2022-08-25T05:59:25.632Z,66.05
2022-08-25T06:00:25.547Z,66.14
2022-08-25T06:01:25.576Z,66.24
2022-08-25T06:02:25.552Z,66.14
2022-08-25T06:03:25.579Z,65.85
2022-08-25T06:04:25.482Z,65.66
2022-08-25T06:05:25.463Z,65.85
2022-08-25T06:06:25.520Z,65.75
2022-08-25T06:07:25.449Z,65.47
2022-08-25T06:08:25.455Z,65.47
2022-08-25T06:09:25.423Z,65.17
2022-08-25T06:10:25.404Z,64.78
2022-08-25T06:11:25.404Z,65.17
2022-08-25T06:12:25.405Z,64.78
2022-08-25T06:13:28.041Z,65.56
2022-08-25T06:14:25.331Z,65.08
2022-08-25T06:15:25.338Z,65.17
2022-08-25T06:16:25.335Z,65.56
2022-08-25T06:17:25.301Z,65.47
2022-08-25T06:18:25.273Z,65.56
2022-08-25T06:19:25.260Z,65.17
2022-08-25T06:20:25.817Z,65.08
2022-08-25T06:21:25.249Z,65.08
2022-08-25T06:22:25.258Z,65.17
2022-08-25T06:23:25.195Z,64.78
2022-08-25T06:24:26.131Z,65.08
2022-08-25T06:25:25.173Z,65.08
2022-08-25T06:26:25.154Z,65.27
2022-08-25T06:27:25.184Z,65.08
2022-08-25T06:28:25.123Z,65.08
2022-08-25T06:29:25.123Z,65.17
2022-08-25T06:30:28.736Z,64.98
2022-08-25T06:31:25.138Z,65.17
2022-08-25T06:32:25.119Z,65.08
2022-08-25T06:33:25.052Z,65.08
2022-08-25T06:34:25.061Z,64.59
2022-08-25T06:35:25.046Z,64.50
2022-08-25T06:36:25.045Z,64.59
2022-08-25T06:37:25.387Z,64.78
2022-08-25T06:38:24.984Z,64.88
2022-08-25T06:39:24.964Z,64.78
2022-08-25T06:40:25.032Z,64.82
2022-08-25T06:41:24.989Z,64.33
2022-08-25T06:42:24.916Z,64.23
2022-08-25T06:43:24.966Z,64.53
2022-08-25T06:44:24.890Z,64.82
2022-08-25T06:45:24.910Z,64.33
2022-08-25T06:46:28.831Z,65.01
2022-08-25T06:47:24.983Z,64.53
2022-08-25T06:48:24.835Z,64.62
2022-08-25T06:49:24.842Z,64.72
2022-08-25T06:50:24.923Z,64.92
2022-08-25T06:51:24.783Z,64.72
2022-08-25T06:52:29.495Z,64.56
2022-08-25T06:53:24.785Z,64.36
2022-08-25T06:54:24.769Z,64.85
2022-08-25T06:55:24.763Z,64.26
2022-08-25T06:56:24.714Z,64.26
2022-08-25T06:57:24.711Z,64.36
2022-08-25T06:58:24.713Z,63.59
2022-08-25T06:59:24.676Z,63.68
2022-08-25T07:00:30.676Z,63.78
2022-08-25T07:01:25.958Z,63.88
2022-08-25T07:02:24.666Z,63.98
2022-08-25T07:04:24.621Z,63.78
2022-08-25T07:05:33.658Z,63.98
2022-08-25T07:06:24.563Z,63.78
2022-08-25T07:07:24.571Z,63.88
2022-08-25T07:08:24.563Z,63.68
2022-08-25T07:09:24.558Z,63.98
2022-08-25T07:10:24.525Z,63.49
2022-08-25T07:12:24.538Z,63.29
2022-08-25T07:13:24.491Z,63.29
2022-08-25T07:14:24.489Z,63.32
2022-08-25T07:15:24.510Z,63.62
2022-08-25T07:16:29.000Z,63.68
2022-08-25T07:17:24.518Z,63.23
2022-08-25T07:18:45.436Z,63.32
2022-08-25T07:19:24.413Z,63.42
2022-08-25T07:21:27.856Z,63.26
2022-08-25T07:22:24.385Z,62.77
2022-08-25T07:23:24.346Z,62.58
2022-08-25T07:24:45.351Z,62.48
2022-08-25T07:25:24.313Z,62.48
2022-08-25T07:26:37.277Z,62.77
2022-08-25T07:27:25.239Z,62.32
2022-08-25T07:28:24.283Z,62.41
2022-08-25T07:30:45.239Z,62.41
2022-08-25T07:31:29.369Z,62.61
2022-08-25T07:32:24.263Z,62.13
2022-08-25T07:33:24.217Z,61.47
2022-08-25T07:34:25.561Z,61.18
2022-08-25T07:35:24.295Z,61.47
2022-08-25T07:36:45.181Z,61.38
2022-08-25T07:37:47.957Z,61.08
2022-08-25T07:38:24.150Z,61.08
2022-08-25T07:39:24.767Z,61.08
2022-08-25T07:40:24.327Z,61.38
2022-08-25T07:41:24.136Z,61.28
2022-08-25T07:42:45.092Z,61.28
2022-08-25T07:43:24.100Z,61.11
2022-08-25T07:44:24.743Z,61.31
2022-08-25T07:45:24.042Z,61.21
2022-08-25T07:46:24.093Z,61.02
2022-08-25T07:47:24.105Z,61.31
2022-08-25T07:48:45.020Z,60.92
2022-08-25T07:49:24.741Z,60.44
2022-08-25T07:50:23.968Z,60.63
2022-08-25T07:51:24.006Z,59.85
2022-08-25T07:52:23.978Z,59.85
2022-08-25T07:53:24.973Z,59.75
2022-08-25T07:54:44.926Z,60.05
2022-08-25T07:55:23.961Z,60.05
2022-08-25T07:56:23.891Z,60.24
2022-08-25T07:57:23.907Z,60.14
2022-08-25T07:58:23.867Z,59.75
2022-08-25T07:59:24.753Z,60.34
2022-08-25T08:00:44.878Z,60.53
2022-08-25T08:01:23.883Z,59.85
2022-08-25T08:02:24.890Z,60.14
2022-08-25T08:03:44.797Z,60.34
2022-08-25T08:04:23.809Z,59.85
2022-08-25T08:05:23.953Z,60.08
2022-08-25T08:06:44.758Z,60.08
2022-08-25T08:07:23.749Z,59.98
2022-08-25T08:08:23.737Z,60.08
2022-08-25T08:09:23.755Z,60.36
2022-08-25T08:11:23.948Z,59.49
2022-08-25T08:12:44.698Z,59.78
2022-08-25T08:13:23.772Z,59.33
2022-08-25T08:14:23.788Z,59.03
2022-08-25T08:15:23.633Z,59.33
2022-08-25T08:16:23.700Z,58.81
2022-08-25T08:17:23.623Z,58.91
2022-08-25T08:18:44.600Z,58.51
2022-08-25T08:19:23.655Z,58.91
2022-08-25T08:20:23.806Z,58.91
2022-08-25T08:21:23.619Z,59.20
2022-08-25T08:22:23.567Z,59.30
2022-08-25T08:23:23.533Z,58.94
2022-08-25T08:24:54.077Z,58.64
2022-08-25T08:25:27.590Z,58.15
2022-08-25T08:26:36.319Z,58.25
2022-08-25T08:27:23.524Z,58.35
2022-08-25T08:28:23.476Z,58.25
2022-08-25T08:29:23.468Z,58.15
2022-08-25T08:30:53.133Z,57.96
2022-08-25T08:31:23.488Z,58.45
2022-08-25T08:32:35.434Z,58.15
2022-08-25T08:33:23.403Z,58.54
2022-08-25T08:34:24.797Z,58.94
2022-08-25T08:35:23.409Z,58.94
2022-08-25T08:36:45.266Z,59.33
2022-08-25T08:37:23.628Z,58.58
2022-08-25T08:38:27.059Z,58.54
2022-08-25T08:39:23.333Z,58.58
2022-08-25T08:40:24.738Z,58.48
2022-08-25T08:41:23.561Z,58.18
2022-08-25T08:42:45.392Z,57.89
2022-08-25T08:43:23.324Z,58.09
2022-08-25T08:44:23.274Z,58.67
2022-08-25T08:45:23.783Z,58.48
2022-08-25T08:46:23.387Z,58.38
2022-08-25T08:47:23.305Z,58.48
2022-08-25T08:48:44.264Z,58.58
2022-08-25T08:49:26.866Z,58.77
2022-08-25T08:50:32.286Z,58.80
2022-08-25T08:51:23.391Z,58.12
2022-08-25T08:52:23.151Z,58.02
2022-08-25T08:53:23.214Z,57.34
2022-08-25T08:54:44.169Z,57.82
2022-08-25T08:55:23.119Z,57.56
2022-08-25T08:56:23.137Z,57.26
2022-08-25T08:57:23.103Z,57.26
2022-08-25T08:58:26.587Z,57.17
2022-08-25T08:59:30.151Z,57.29
2022-08-25T09:00:48.925Z,56.71
2022-08-25T09:01:23.243Z,56.41
2022-08-25T09:02:49.727Z,56.29
2022-08-25T09:03:23.146Z,56.48
2022-08-25T09:04:24.424Z,56.00
2022-08-25T09:05:23.056Z,56.29
2022-08-25T09:06:44.086Z,56.12
2022-08-25T09:07:22.967Z,56.12
2022-08-25T09:08:22.962Z,56.41
2022-08-25T09:09:22.996Z,56.51
2022-08-25T09:10:22.969Z,56.51
2022-08-25T09:11:23.054Z,56.90
2022-08-25T09:12:48.118Z,56.25
2022-08-25T09:13:26.120Z,56.54
2022-08-25T09:14:22.961Z,56.35
2022-08-25T09:15:22.907Z,56.05
2022-08-25T09:16:31.900Z,55.76
2022-08-25T09:17:22.886Z,55.57
2022-08-25T09:18:51.050Z,55.86
2022-08-25T09:19:23.735Z,56.15
2022-08-25T09:20:22.820Z,55.66
2022-08-25T09:21:22.796Z,55.18
2022-08-25T09:22:34.865Z,55.44
2022-08-25T09:23:22.764Z,55.73
2022-08-25T09:24:43.756Z,56.22
2022-08-25T09:25:39.578Z,56.54
2022-08-25T09:26:22.726Z,56.05
2022-08-25T09:27:22.741Z,55.57
2022-08-25T09:28:22.778Z,55.27
2022-08-25T09:29:22.693Z,55.08
2022-08-25T09:30:43.852Z,54.98
2022-08-25T09:31:25.372Z,54.95
2022-08-25T09:32:24.030Z,54.75
2022-08-25T09:33:23.322Z,55.24
2022-08-25T09:34:22.639Z,54.95
2022-08-25T09:35:22.646Z,55.34
2022-08-25T09:36:43.665Z,55.15
2022-08-25T09:37:22.605Z,55.32
2022-08-25T09:38:22.613Z,55.44
2022-08-25T09:39:22.564Z,55.44
2022-08-25T09:40:22.591Z,55.44
2022-08-25T09:41:22.578Z,55.44
2022-08-25T09:42:43.565Z,55.15
2022-08-25T09:43:22.536Z,55.44
2022-08-25T09:44:22.555Z,55.24
2022-08-25T09:45:22.498Z,55.15
2022-08-25T09:46:22.553Z,55.44
2022-08-25T09:47:22.494Z,55.44
2022-08-25T09:48:43.486Z,55.44
2022-08-25T09:49:23.344Z,55.34
2022-08-25T09:50:22.501Z,55.54
2022-08-25T09:51:22.449Z,55.15
2022-08-25T09:52:22.418Z,55.05
2022-08-25T09:53:22.417Z,55.44
2022-08-25T09:54:44.062Z,55.71
2022-08-25T09:55:22.416Z,56.02
2022-08-25T09:56:22.375Z,55.93
2022-08-25T09:57:22.377Z,55.73
2022-08-25T09:58:22.348Z,55.15
2022-08-25T09:59:34.428Z,55.18
2022-08-25T10:00:43.343Z,55.47
2022-08-25T10:01:22.528Z,55.47
2022-08-25T10:02:22.317Z,55.18
2022-08-25T10:03:22.656Z,55.37
2022-08-25T10:04:22.281Z,55.27
2022-08-25T10:05:23.376Z,55.47
2022-08-25T10:06:43.264Z,55.47
2022-08-25T10:07:22.241Z,55.15
2022-08-25T10:08:24.652Z,55.24
2022-08-25T10:09:22.282Z,55.34
2022-08-25T10:10:22.238Z,55.18
2022-08-25T10:11:22.174Z,55.24
2022-08-25T10:12:43.255Z,55.44
2022-08-25T10:13:22.857Z,55.15
2022-08-25T10:14:22.165Z,54.98
2022-08-25T10:15:29.150Z,55.34
2022-08-25T10:16:24.559Z,55.24
2022-08-25T10:17:22.105Z,55.34
2022-08-25T10:18:43.103Z,55.90
2022-08-25T10:19:22.173Z,55.61
2022-08-25T10:20:22.137Z,55.51
2022-08-25T10:21:22.851Z,56.00
2022-08-25T10:22:22.092Z,56.00
2022-08-25T10:23:22.100Z,55.71
2022-08-25T10:24:43.896Z,55.71
2022-08-25T10:25:22.063Z,55.51
2022-08-25T10:26:22.110Z,55.90
2022-08-25T10:27:21.980Z,56.00
2022-08-25T10:28:21.984Z,56.38
2022-08-25T10:29:22.495Z,56.20
2022-08-25T10:30:43.006Z,56.20
2022-08-25T10:31:22.870Z,56.10
2022-08-25T10:32:21.979Z,56.58
2022-08-25T10:33:21.972Z,55.68
2022-08-25T10:34:21.955Z,55.71
2022-08-25T10:35:21.884Z,55.61
2022-08-25T10:36:42.894Z,55.58
2022-08-25T10:37:21.868Z,55.97
2022-08-25T10:38:22.067Z,56.26
2022-08-25T10:39:34.146Z,56.20
2022-08-25T10:40:21.965Z,56.58
2022-08-25T10:41:21.810Z,56.48
2022-08-25T10:42:42.867Z,56.58
2022-08-25T10:43:23.825Z,56.58
2022-08-25T10:44:21.843Z,56.48
2022-08-25T10:45:22.227Z,56.48
2022-08-25T10:46:21.807Z,57.17
2022-08-25T10:47:22.386Z,57.26
2022-08-25T10:48:43.369Z,57.07
2022-08-25T10:49:21.691Z,57.07
2022-08-25T10:50:21.708Z,56.97
2022-08-25T10:51:25.411Z,56.58
2022-08-25T10:52:21.730Z,56.10
2022-08-25T10:53:21.664Z,56.10
2022-08-25T10:54:42.663Z,56.20
2022-08-25T10:55:21.654Z,56.20
2022-08-25T10:56:21.653Z,56.20
2022-08-25T10:57:21.610Z,56.29
2022-08-25T10:58:23.302Z,56.38
2022-08-25T10:59:21.569Z,56.87
2022-08-25T11:00:48.221Z,56.58
2022-08-25T11:01:28.827Z,56.68
2022-08-25T11:02:21.548Z,56.58
2022-08-25T11:03:22.372Z,56.68
2022-08-25T11:04:21.546Z,56.65
2022-08-25T11:05:24.583Z,56.46
2022-08-25T11:06:42.618Z,56.36
2022-08-25T11:07:21.490Z,56.75
2022-08-25T11:08:21.485Z,57.04
2022-08-25T11:09:21.442Z,56.95
2022-08-25T11:10:21.441Z,57.53
2022-08-25T11:11:21.479Z,57.11
2022-08-25T11:12:42.442Z,57.21
2022-08-25T11:13:21.407Z,57.31
2022-08-25T11:14:21.400Z,57.70
2022-08-25T11:15:21.374Z,57.89
2022-08-25T11:16:21.382Z,58.48
2022-08-25T11:17:21.343Z,58.48
2022-08-25T11:18:42.343Z,58.67
2022-08-25T11:19:21.348Z,58.09
2022-08-25T11:20:26.964Z,58.06
2022-08-25T11:21:22.174Z,58.67
2022-08-25T11:22:21.272Z,58.97
2022-08-25T11:23:21.261Z,58.54
2022-08-25T11:24:42.875Z,58.74
2022-08-25T11:25:21.551Z,58.94
2022-08-25T11:26:21.234Z,58.64
2022-08-25T11:27:21.540Z,58.54
2022-08-25T11:28:21.208Z,58.74
2022-08-25T11:29:21.198Z,59.13
2022-08-25T11:30:42.213Z,59.13
2022-08-25T11:31:21.163Z,58.64
2022-08-25T11:32:21.188Z,58.84
2022-08-25T11:33:21.143Z,59.13
2022-08-25T11:34:21.874Z,59.03
2022-08-25T11:35:21.102Z,59.03
2022-08-25T11:36:42.106Z,58.94
2022-08-25T11:37:21.070Z,58.94
2022-08-25T11:38:21.081Z,59.03
2022-08-25T11:39:21.888Z,59.13
2022-08-25T11:40:21.073Z,58.94
2022-08-25T11:41:21.548Z,58.54
2022-08-25T11:42:42.025Z,57.96
2022-08-25T11:43:21.769Z,58.45
2022-08-25T11:44:21.017Z,58.35
2022-08-25T11:45:20.967Z,57.86
2022-08-25T11:46:20.988Z,57.96
2022-08-25T11:47:21.567Z,58.06
2022-08-25T11:48:41.939Z,57.86
2022-08-25T11:49:21.944Z,58.48
2022-08-25T11:50:20.935Z,58.45
2022-08-25T11:51:20.889Z,58.48
2022-08-25T11:52:20.901Z,57.89
2022-08-25T11:53:26.540Z,58.25
2022-08-25T11:54:41.872Z,58.15
2022-08-25T11:55:23.000Z,58.25
2022-08-25T11:56:20.830Z,58.35
2022-08-25T11:57:20.826Z,58.45
2022-08-25T11:58:20.815Z,57.96
2022-08-25T11:59:20.817Z,58.03
2022-08-25T12:00:42.405Z,58.45
2022-08-25T12:01:20.772Z,58.03
2022-08-25T12:02:20.772Z,58.71
2022-08-25T12:03:20.734Z,58.61
2022-08-25T12:04:20.807Z,58.84
2022-08-25T12:05:20.783Z,58.71
2022-08-25T12:06:41.696Z,58.71
2022-08-25T12:07:20.692Z,59.03
2022-08-25T12:08:20.665Z,58.91
2022-08-25T12:09:20.652Z,58.42
2022-08-25T12:10:20.634Z,58.91
2022-08-25T12:11:20.640Z,58.84
2022-08-25T12:12:41.617Z,58.74
2022-08-25T12:13:20.599Z,58.91
2022-08-25T12:14:20.604Z,58.42
2022-08-25T12:15:20.590Z,58.54
2022-08-25T12:16:20.579Z,58.51
2022-08-25T12:17:20.557Z,58.71
2022-08-25T12:18:45.584Z,58.81
2022-08-25T12:19:20.538Z,59.30
2022-08-25T12:20:20.548Z,59.30
2022-08-25T12:21:20.495Z,59.10
2022-08-25T12:22:20.493Z,58.94
2022-08-25T12:23:20.471Z,59.13
2022-08-25T12:24:41.464Z,58.84
2022-08-25T12:25:21.404Z,58.94
2022-08-25T12:26:20.440Z,59.23
2022-08-25T12:27:20.418Z,59.13
2022-08-25T12:28:20.437Z,58.84
2022-08-25T12:29:21.574Z,58.94
2022-08-25T12:30:41.414Z,58.15
2022-08-25T12:31:20.433Z,57.96
2022-08-25T12:32:20.414Z,57.96
2022-08-25T12:33:20.666Z,57.96
2022-08-25T12:34:20.386Z,58.15
2022-08-25T12:35:20.324Z,58.03
2022-08-25T12:36:41.323Z,58.03
2022-08-25T12:37:20.283Z,58.71
2022-08-25T12:38:20.282Z,58.51
2022-08-25T12:39:24.660Z,58.51
2022-08-25T12:40:20.939Z,58.91
2022-08-25T12:41:20.275Z,58.61
2022-08-25T12:42:41.231Z,58.81
2022-08-25T12:43:20.217Z,58.81
2022-08-25T12:44:20.195Z,58.42
2022-08-25T12:45:20.920Z,58.32
2022-08-25T12:46:20.220Z,58.61
2022-08-25T12:47:20.147Z,59.39
2022-08-25T12:48:41.143Z,59.20
2022-08-25T12:49:21.033Z,59.39
2022-08-25T12:50:20.930Z,59.30
2022-08-25T12:51:20.096Z,58.91
2022-08-25T12:52:20.101Z,59.30
2022-08-25T12:53:20.077Z,58.91
2022-08-25T12:54:41.064Z,58.91
2022-08-25T12:55:20.915Z,59.20
2022-08-25T12:56:20.023Z,59.20
2022-08-25T12:57:25.009Z,58.91
2022-08-25T12:58:20.084Z,59.00
2022-08-25T12:59:19.992Z,59.00
2022-08-25T13:00:40.997Z,59.10
2022-08-25T13:01:32.919Z,59.20